createdAt,value
2023-02-14T00:00:36.562Z,101989.22
2023-02-14T00:03:25.636Z,101988.34
2023-02-14T00:05:54.555Z,101990.88
2023-02-14T00:08:25.026Z,102002.22
2023-02-14T00:10:53.868Z,101997.88
2023-02-14T00:13:22.959Z,101992.72
2023-02-14T00:15:50.845Z,101991.16
2023-02-14T00:18:19.925Z,101989.47
2023-02-14T00:20:48.771Z,102000.69
2023-02-14T00:23:17.799Z,102002.44
2023-02-14T00:25:47.943Z,102002.28
2023-02-14T00:28:17.064Z,102014.28
2023-02-14T00:30:47.296Z,102010.78
2023-02-14T00:33:16.478Z,102009.97
2023-02-14T00:35:46.003Z,102004.00
2023-02-14T00:38:15.115Z,102007.56
2023-02-14T00:40:43.869Z,102019.88
2023-02-14T00:43:14.320Z,102021.59
2023-02-14T00:45:43.138Z,102025.03
2023-02-14T00:48:12.248Z,102021.00
2023-02-14T00:50:41.118Z,102022.72
2023-02-14T00:53:10.189Z,102016.59
2023-02-14T00:55:39.101Z,102019.13
2023-02-14T00:58:08.151Z,102022.72
2023-02-14T01:00:38.481Z,102019.06
2023-02-14T01:03:07.586Z,102019.94
2023-02-14T01:05:36.816Z,102014.69
2023-02-14T01:08:06.714Z,102017.28
2023-02-14T01:10:38.176Z,102020.94
2023-02-14T01:13:08.214Z,102010.41
2023-02-14T01:15:41.340Z,102002.63
2023-02-14T01:18:11.767Z,102014.00
2023-02-14T01:20:41.217Z,102011.34
2023-02-14T01:23:10.540Z,102019.31
2023-02-14T01:25:41.070Z,102011.53
2023-02-14T01:28:10.111Z,102009.88
2023-02-14T01:30:40.269Z,102015.06
2023-02-14T01:33:12.023Z,102020.25
2023-02-14T01:35:40.828Z,102021.91
2023-02-14T01:38:09.873Z,102027.28
2023-02-14T01:40:44.634Z,102014.41
2023-02-14T01:43:17.126Z,102026.75
2023-02-14T01:45:48.255Z,102029.41
2023-02-14T01:48:19.342Z,102028.59
2023-02-14T01:50:53.769Z,102018.16
2023-02-14T01:53:29.672Z,102026.03
2023-02-14T01:56:07.311Z,102021.88
2023-02-14T01:58:45.103Z,102009.63
2023-02-14T02:01:17.819Z,102015.75
2023-02-14T02:03:55.461Z,102015.69
2023-02-14T02:06:29.479Z,102026.00
2023-02-14T02:09:11.954Z,102013.03
2023-02-14T02:11:41.771Z,102007.97
2023-02-14T02:14:17.254Z,102012.38
2023-02-14T02:17:16.179Z,102020.19
2023-02-14T02:20:37.523Z,102018.59
2023-02-14T02:23:49.121Z,102015.06
2023-02-14T02:27:03.744Z,102011.50
2023-02-14T02:30:36.672Z,102020.19
2023-02-14T02:34:00.422Z,102028.84
2023-02-14T02:37:04.191Z,102030.66
2023-02-14T02:39:50.406Z,102032.53
2023-02-14T02:42:37.027Z,102047.19
2023-02-14T02:45:18.565Z,102051.66
2023-02-14T02:48:03.752Z,102047.34
2023-02-14T02:50:59.344Z,102050.75
2023-02-14T02:53:42.055Z,102047.19
2023-02-14T02:56:34.834Z,102054.25
2023-02-14T02:59:18.343Z,102057.69
2023-02-14T03:02:00.808Z,102053.53
2023-02-14T03:04:47.567Z,102050.13
2023-02-14T03:07:34.140Z,102047.47
2023-02-14T03:10:14.320Z,102050.88
2023-02-14T03:13:46.250Z,102046.53
2023-02-14T03:16:34.776Z,102053.59
2023-02-14T03:20:10.152Z,102061.41
2023-02-14T03:22:51.595Z,102058.91
2023-02-14T03:25:40.947Z,102062.59
2023-02-14T03:28:19.619Z,102052.94
2023-02-14T03:31:01.034Z,102053.69
2023-02-14T03:33:39.228Z,102060.63
2023-02-14T03:36:17.410Z,102056.19
2023-02-14T03:38:57.058Z,102049.38
2023-02-14T03:41:36.917Z,102060.81
2023-02-14T03:44:12.160Z,102068.78
2023-02-14T03:46:47.884Z,102062.66
2023-02-14T03:49:31.176Z,102067.03
2023-02-14T03:52:04.312Z,102068.66
2023-02-14T03:54:35.577Z,102057.44
2023-02-14T03:57:19.804Z,102060.78
2023-02-14T03:59:50.187Z,102052.16
2023-02-14T04:02:27.297Z,102063.34
2023-02-14T04:05:00.137Z,102069.53
2023-02-14T04:07:29.342Z,102063.47
2023-02-14T04:09:58.441Z,102051.31
2023-02-14T04:12:37.440Z,102051.41
2023-02-14T04:15:08.285Z,102048.81
2023-02-14T04:17:54.783Z,102050.44
2023-02-14T04:20:23.745Z,102052.25
2023-02-14T04:22:53.087Z,102053.25
2023-02-14T04:25:23.502Z,102048.88
2023-02-14T04:27:54.191Z,102039.25
2023-02-14T04:30:23.502Z,102050.53
2023-02-14T04:32:52.585Z,102050.66
2023-02-14T04:35:21.468Z,102047.22
2023-02-14T04:37:50.526Z,102058.47
2023-02-14T04:40:19.443Z,102059.31
2023-02-14T04:42:49.033Z,102060.28
2023-02-14T04:45:19.421Z,102067.22
2023-02-14T04:47:48.681Z,102072.56
2023-02-14T04:50:17.543Z,102068.34
2023-02-14T04:52:46.650Z,102076.88
2023-02-14T04:55:15.491Z,102080.31
2023-02-14T04:57:44.595Z,102073.41
2023-02-14T05:00:15.299Z,102082.97
2023-02-14T05:02:45.731Z,102088.00
2023-02-14T05:05:14.572Z,102078.53
2023-02-14T05:07:47.761Z,102088.97
2023-02-14T05:10:16.918Z,102088.97
2023-02-14T05:12:45.979Z,102091.53
2023-02-14T05:15:14.804Z,102101.03
2023-02-14T05:17:45.355Z,102099.47
2023-02-14T05:20:14.603Z,102093.47
2023-02-14T05:22:43.649Z,102102.22
2023-02-14T05:25:12.587Z,102108.22
2023-02-14T05:27:41.680Z,102105.53
2023-02-14T05:30:12.495Z,102113.34
2023-02-14T05:32:41.708Z,102113.50
2023-02-14T05:35:12.158Z,102105.53
2023-02-14T05:37:41.234Z,102114.28
2023-02-14T05:40:13.539Z,102126.44
2023-02-14T05:42:42.861Z,102118.75
2023-02-14T05:45:13.425Z,102113.47
2023-02-14T05:47:42.733Z,102119.56
2023-02-14T05:50:13.448Z,102117.03
2023-02-14T05:52:42.938Z,102123.13
2023-02-14T05:55:12.582Z,102113.53
2023-02-14T05:57:41.620Z,102132.53
2023-02-14T06:00:12.518Z,102124.78
2023-02-14T06:02:42.407Z,102127.31
2023-02-14T06:05:12.958Z,102130.03
2023-02-14T06:07:43.216Z,102130.06
2023-02-14T06:10:12.812Z,102134.56
2023-02-14T06:12:41.833Z,102133.59
2023-02-14T06:15:11.087Z,102135.34
2023-02-14T06:17:40.225Z,102140.56
2023-02-14T06:20:11.510Z,102147.47
2023-02-14T06:22:41.972Z,102135.38
2023-02-14T06:25:10.793Z,102139.69
2023-02-14T06:27:39.991Z,102141.75
2023-02-14T06:30:11.400Z,102142.63
2023-02-14T06:32:40.865Z,102144.28
2023-02-14T06:35:10.170Z,102143.53
2023-02-14T06:37:41.235Z,102146.16
2023-02-14T06:40:13.902Z,102146.22
2023-02-14T06:42:43.091Z,102147.06
2023-02-14T06:45:12.028Z,102147.94
2023-02-14T06:47:41.206Z,102164.41
2023-02-14T06:50:11.834Z,102152.25
2023-02-14T06:52:42.157Z,102144.41
2023-02-14T06:55:13.916Z,102158.28
2023-02-14T06:57:43.088Z,102159.16
2023-02-14T07:00:14.843Z,102153.94
2023-02-14T07:02:44.155Z,102154.06
2023-02-14T07:05:13.076Z,102152.19
2023-02-14T07:07:42.224Z,102152.28
2023-02-14T07:10:13.251Z,102150.44
2023-02-14T07:12:42.866Z,102144.41
2023-02-14T07:15:14.157Z,102149.66
2023-02-14T07:17:43.875Z,102154.72
2023-02-14T07:20:15.676Z,102153.84
2023-02-14T07:22:45.184Z,102158.09
2023-02-14T07:25:15.635Z,102157.13
2023-02-14T07:27:45.308Z,102160.63
2023-02-14T07:30:15.492Z,102173.56
2023-02-14T07:32:44.662Z,102166.56
2023-02-14T07:35:15.293Z,102168.25
2023-02-14T07:37:44.538Z,102171.06
2023-02-14T07:40:15.521Z,102169.16
2023-02-14T07:42:45.193Z,102170.91
2023-02-14T07:45:21.762Z,102163.88
2023-02-14T07:47:53.917Z,102174.25
2023-02-14T07:50:23.986Z,102174.09
2023-02-14T07:52:53.154Z,102179.38
2023-02-14T07:55:25.109Z,102171.72
2023-02-14T07:57:54.268Z,102182.88
2023-02-14T08:00:24.237Z,102182.06
2023-02-14T08:02:53.450Z,102182.97
2023-02-14T08:05:22.410Z,102192.53
2023-02-14T08:07:51.673Z,102196.09
2023-02-14T08:10:22.103Z,102202.91
2023-02-14T08:12:59.963Z,102205.56
2023-02-14T08:15:48.451Z,102206.47
2023-02-14T08:18:18.729Z,102215.31
2023-02-14T08:20:49.939Z,102223.06
2023-02-14T08:23:21.439Z,102216.97
2023-02-14T08:25:53.875Z,102218.66
2023-02-14T08:28:23.254Z,102222.00
2023-02-14T08:30:52.680Z,102224.59
2023-02-14T08:33:22.539Z,102231.41
2023-02-14T08:35:52.946Z,102227.00
2023-02-14T08:38:22.570Z,102228.81
2023-02-14T08:40:52.773Z,102223.47
2023-02-14T08:43:21.858Z,102234.84
2023-02-14T08:45:54.540Z,102226.22
2023-02-14T08:48:25.301Z,102215.72
2023-02-14T08:50:54.123Z,102221.06
2023-02-14T08:53:23.259Z,102222.75
2023-02-14T08:55:53.534Z,102228.66
2023-02-14T08:58:22.676Z,102228.63
2023-02-14T09:00:51.542Z,102233.03
2023-02-14T09:03:20.759Z,102222.44
2023-02-14T09:05:49.544Z,102227.75
2023-02-14T09:08:18.674Z,102231.13
2023-02-14T09:10:47.528Z,102224.06
2023-02-14T09:13:18.070Z,102232.78
2023-02-14T09:15:46.897Z,102236.25
2023-02-14T09:18:16.279Z,102234.56
2023-02-14T09:20:45.481Z,102230.38
2023-02-14T09:23:14.586Z,102234.63
2023-02-14T09:25:43.518Z,102225.16
2023-02-14T09:28:12.617Z,102237.25
2023-02-14T09:30:42.965Z,102239.84
2023-02-14T09:33:12.040Z,102240.69
2023-02-14T09:35:58.159Z,102244.94
2023-02-14T09:38:27.252Z,102233.63
2023-02-14T09:40:56.632Z,102237.03
2023-02-14T09:43:38.063Z,102238.75
2023-02-14T09:46:15.937Z,102237.94
2023-02-14T09:48:49.775Z,102237.94
2023-02-14T09:51:23.449Z,102237.00
2023-02-14T09:53:59.911Z,102238.88
2023-02-14T09:56:51.347Z,102235.47
2023-02-14T09:59:29.477Z,102242.41
2023-02-14T10:02:17.571Z,102243.28
2023-02-14T10:05:06.929Z,102246.72
2023-02-14T10:07:52.857Z,102244.97
2023-02-14T10:10:32.978Z,102248.28
2023-02-14T10:13:11.977Z,102251.84
2023-02-14T10:15:46.561Z,102246.69
2023-02-14T10:18:23.534Z,102248.59
2023-02-14T10:20:59.238Z,102244.34
2023-02-14T10:23:35.524Z,102244.31
2023-02-14T10:26:10.583Z,102242.41
2023-02-14T10:28:46.342Z,102240.41
2023-02-14T10:31:24.929Z,102235.88
2023-02-14T10:34:01.590Z,102237.56
2023-02-14T10:36:51.450Z,102241.88
2023-02-14T10:39:51.646Z,102242.66
2023-02-14T10:42:32.440Z,102239.94
2023-02-14T10:45:19.122Z,102251.19
2023-02-14T10:47:57.606Z,102241.75
2023-02-14T10:50:39.478Z,102238.09
2023-02-14T10:53:22.876Z,102236.66
2023-02-14T10:56:01.267Z,102234.75
2023-02-14T10:58:37.903Z,102225.84
2023-02-14T11:01:12.272Z,102235.34
2023-02-14T11:03:49.206Z,102236.16
2023-02-14T11:06:20.112Z,102240.44
2023-02-14T11:08:49.233Z,102230.94
2023-02-14T11:11:25.392Z,102234.41
2023-02-14T11:13:54.720Z,102226.59
2023-02-14T11:16:33.430Z,102223.88
2023-02-14T11:19:24.586Z,102224.91
2023-02-14T11:21:58.194Z,102233.47
2023-02-14T11:24:32.007Z,102225.56
2023-02-14T11:27:05.105Z,102232.44
2023-02-14T11:29:52.333Z,102230.75
2023-02-14T11:32:25.399Z,102232.81
2023-02-14T11:35:00.961Z,102228.28
2023-02-14T11:37:37.413Z,102214.59
2023-02-14T11:40:11.622Z,102216.97
2023-02-14T11:42:44.457Z,102216.00
2023-02-14T11:45:32.076Z,102208.91
2023-02-14T11:48:24.982Z,102200.03
2023-02-14T11:51:09.115Z,102202.63
2023-02-14T11:53:48.580Z,102198.22
2023-02-14T11:56:21.301Z,102201.59
2023-02-14T11:58:54.825Z,102194.63
2023-02-14T12:01:27.693Z,102199.84
2023-02-14T12:04:01.354Z,102197.38
2023-02-14T12:06:34.145Z,102197.94
2023-02-14T12:09:31.559Z,102191.81
2023-02-14T12:12:04.550Z,102197.84
2023-02-14T12:14:36.359Z,102196.06
2023-02-14T12:17:20.090Z,102195.22
2023-02-14T12:19:56.709Z,102191.94
2023-02-14T12:22:34.108Z,102187.44
2023-02-14T12:25:15.743Z,102189.09
2023-02-14T12:27:54.727Z,102195.19
2023-02-14T12:30:26.940Z,102187.22
2023-02-14T12:32:57.761Z,102191.50
2023-02-14T12:35:47.340Z,102196.56
2023-02-14T12:38:31.093Z,102195.63
2023-02-14T12:41:19.050Z,102193.16
2023-02-14T12:43:52.616Z,102189.97
2023-02-14T12:46:52.502Z,102188.25
2023-02-14T12:50:02.982Z,102184.63
2023-02-14T12:53:37.402Z,102180.13
2023-02-14T12:56:21.707Z,102177.66
2023-02-14T12:59:04.048Z,102186.31
2023-02-14T13:02:30.647Z,102181.72
2023-02-14T13:05:14.169Z,102174.88
2023-02-14T13:08:03.894Z,102178.16
2023-02-14T13:10:54.884Z,102173.63
2023-02-14T13:13:36.689Z,102171.00
2023-02-14T13:16:20.137Z,102173.69
2023-02-14T13:18:58.972Z,102182.59
2023-02-14T13:21:33.582Z,102184.09
2023-02-14T13:24:18.359Z,102185.69
2023-02-14T13:26:53.916Z,102183.03
2023-02-14T13:29:29.828Z,102188.28
2023-02-14T13:32:03.578Z,102195.38
2023-02-14T13:34:38.999Z,102194.44
2023-02-14T13:37:15.120Z,102179.75
2023-02-14T13:39:49.699Z,102189.03
2023-02-14T13:42:56.710Z,102187.31
2023-02-14T13:46:07.015Z,102193.31
2023-02-14T13:48:38.084Z,102183.81
2023-02-14T13:51:11.023Z,102192.22
2023-02-14T13:53:43.564Z,102188.78
2023-02-14T13:56:34.291Z,102189.53
2023-02-14T13:59:07.759Z,102185.25
2023-02-14T14:01:42.906Z,102185.69
2023-02-14T14:04:38.044Z,102182.06
2023-02-14T14:07:30.121Z,102175.25
2023-02-14T14:10:04.808Z,102179.66
2023-02-14T14:12:45.275Z,102173.50
2023-02-14T14:15:19.132Z,102176.03
2023-02-14T14:18:38.564Z,102180.47
2023-02-14T14:21:17.598Z,102173.63
2023-02-14T14:23:46.751Z,102178.91
2023-02-14T14:26:38.857Z,102178.19
2023-02-14T14:29:21.391Z,102177.31
2023-02-14T14:31:55.708Z,102185.25
2023-02-14T14:34:29.750Z,102181.72
2023-02-14T14:37:07.335Z,102180.81
2023-02-14T14:39:39.906Z,102181.66
2023-02-14T14:42:14.431Z,102186.81
2023-02-14T14:44:49.712Z,102192.16
2023-02-14T14:47:22.898Z,102179.16
2023-02-14T14:49:55.694Z,102180.00
2023-02-14T14:52:39.384Z,102188.47
2023-02-14T14:55:21.138Z,102190.19
2023-02-14T14:57:53.566Z,102184.16
2023-02-14T15:00:28.686Z,102182.44
2023-02-14T15:03:08.747Z,102183.25
2023-02-14T15:05:43.121Z,102179.81
2023-02-14T15:08:23.288Z,102185.84
2023-02-14T15:10:56.768Z,102184.16
2023-02-14T15:13:50.533Z,102180.72
2023-02-14T15:16:27.549Z,102183.38
2023-02-14T15:19:07.557Z,102186.09
2023-02-14T15:21:38.468Z,102187.81
2023-02-14T15:24:17.117Z,102192.06
2023-02-14T15:26:49.007Z,102192.88
2023-02-14T15:29:25.742Z,102193.69
2023-02-14T15:31:57.530Z,102190.25
2023-02-14T15:34:31.423Z,102185.06
2023-02-14T15:37:06.607Z,102187.69
2023-02-14T15:39:41.610Z,102183.25
2023-02-14T15:42:25.799Z,102185.81
2023-02-14T15:45:22.364Z,102180.78
2023-02-14T15:47:56.914Z,102181.66
2023-02-14T15:50:29.164Z,102190.38
2023-02-14T15:53:08.082Z,102186.03
2023-02-14T15:55:38.086Z,102191.06
2023-02-14T15:58:20.394Z,102201.53
2023-02-14T16:00:51.333Z,102198.88
2023-02-14T16:03:24.809Z,102204.09
2023-02-14T16:05:54.751Z,102196.38
2023-02-14T16:08:32.910Z,102203.31
2023-02-14T16:11:05.975Z,102204.16
2023-02-14T16:13:37.959Z,102206.09
2023-02-14T16:16:09.531Z,102202.63
2023-02-14T16:18:41.684Z,102207.03
2023-02-14T16:21:20.403Z,102214.00
2023-02-14T16:24:13.818Z,102214.06
2023-02-14T16:26:45.276Z,102216.78
2023-02-14T16:29:17.498Z,102217.72
2023-02-14T16:32:15.761Z,102216.09
2023-02-14T16:34:41.729Z,102217.75
2023-02-14T16:37:22.990Z,102211.63
2023-02-14T16:39:57.747Z,102214.44
2023-02-14T16:42:27.013Z,102221.38
2023-02-14T16:44:56.281Z,102218.69
2023-02-14T16:47:27.862Z,102221.34
2023-02-14T16:49:57.061Z,102218.78
2023-02-14T16:52:30.077Z,102224.84
2023-02-14T16:55:00.510Z,102221.41
2023-02-14T16:57:35.380Z,102217.09
2023-02-14T17:00:06.580Z,102225.91
2023-02-14T17:02:36.359Z,102215.47
2023-02-14T17:05:05.817Z,102221.56
2023-02-14T17:07:35.128Z,102221.63
2023-02-14T17:10:11.450Z,102225.88
2023-02-14T17:12:46.652Z,102221.50
2023-02-14T17:15:19.966Z,102238.94
2023-02-14T17:17:51.812Z,102239.81
2023-02-14T17:20:22.029Z,102233.66
2023-02-14T17:22:51.472Z,102242.28
2023-02-14T17:25:22.176Z,102244.94
2023-02-14T17:27:50.970Z,102243.34
2023-02-14T17:30:20.310Z,102246.75
2023-02-14T17:32:49.710Z,102245.09
2023-02-14T17:35:20.097Z,102240.84
2023-02-14T17:37:49.501Z,102251.22
2023-02-14T17:40:18.777Z,102254.69
2023-02-14T17:42:49.119Z,102247.00
2023-02-14T17:45:18.341Z,102241.66
2023-02-14T17:47:47.162Z,102251.28
2023-02-14T17:50:18.173Z,102250.38
2023-02-14T17:52:47.002Z,102245.16
2023-02-14T17:55:16.876Z,102250.44
2023-02-14T17:57:45.689Z,102244.41
2023-02-14T18:00:19.751Z,102246.13
2023-02-14T18:02:49.297Z,102246.22
2023-02-14T18:05:21.309Z,102248.00
2023-02-14T18:07:52.392Z,102241.00
2023-02-14T18:10:21.791Z,102243.69
2023-02-14T18:12:50.582Z,102244.53
2023-02-14T18:15:21.077Z,102246.28
2023-02-14T18:17:51.671Z,102245.41
2023-02-14T18:20:21.364Z,102248.00
2023-02-14T18:22:50.342Z,102240.25
2023-02-14T18:25:19.543Z,102248.09
2023-02-14T18:27:48.800Z,102246.38
2023-02-14T18:30:18.409Z,102250.75
2023-02-14T18:32:48.761Z,102244.72
2023-02-14T18:35:18.206Z,102242.91
2023-02-14T18:37:47.036Z,102247.34
2023-02-14T18:40:20.259Z,102248.16
2023-02-14T18:42:49.234Z,102248.09
2023-02-14T18:45:18.566Z,102249.03
2023-02-14T18:47:48.722Z,102248.16
2023-02-14T18:50:18.111Z,102241.16
2023-02-14T18:52:46.925Z,102245.47
2023-02-14T18:55:16.033Z,102247.38
2023-02-14T18:57:44.807Z,102247.31
2023-02-14T19:00:15.919Z,102242.94
2023-02-14T19:02:44.795Z,102242.94
2023-02-14T19:05:15.885Z,102249.00
2023-02-14T19:07:44.710Z,102247.19
2023-02-14T19:10:13.906Z,102244.53
2023-02-14T19:12:42.774Z,102246.34
2023-02-14T19:15:12.202Z,102252.53
2023-02-14T19:17:41.124Z,102255.16
2023-02-14T19:20:12.636Z,102250.78
2023-02-14T19:22:43.394Z,102253.41
2023-02-14T19:25:12.460Z,102249.03
2023-02-14T19:27:43.046Z,102256.88
2023-02-14T19:30:12.972Z,102258.59
2023-02-14T19:32:41.819Z,102253.44
2023-02-14T19:35:11.878Z,102263.00
2023-02-14T19:37:42.073Z,102254.38
2023-02-14T19:40:12.063Z,102264.84
2023-02-14T19:42:40.882Z,102262.41
2023-02-14T19:45:10.766Z,102257.19
2023-02-14T19:47:47.142Z,102254.56
2023-02-14T19:50:17.722Z,102258.03
2023-02-14T19:52:47.855Z,102249.28
2023-02-14T19:55:23.563Z,102256.28
2023-02-14T19:57:52.425Z,102257.19
2023-02-14T20:00:21.892Z,102258.03
2023-02-14T20:02:50.711Z,102261.47
2023-02-14T20:05:22.918Z,102257.94
2023-02-14T20:07:55.472Z,102251.97
2023-02-14T20:10:24.611Z,102251.25
2023-02-14T20:12:53.461Z,102254.78
2023-02-14T20:15:22.611Z,102255.00
2023-02-14T20:17:51.859Z,102251.53
2023-02-14T20:20:21.880Z,102236.84
2023-02-14T20:22:52.236Z,102253.44
2023-02-14T20:25:21.511Z,102248.22
2023-02-14T20:27:54.419Z,102243.94
2023-02-14T20:30:23.748Z,102236.22
2023-02-14T20:32:53.790Z,102240.59
2023-02-14T20:35:23.130Z,102244.03
2023-02-14T20:37:54.017Z,102239.69
2023-02-14T20:40:23.605Z,102242.34
2023-02-14T20:42:52.466Z,102247.63
2023-02-14T20:45:21.763Z,102254.47
2023-02-14T20:47:50.632Z,102250.19
2023-02-14T20:50:20.124Z,102254.44
2023-02-14T20:52:48.924Z,102251.78
2023-02-14T20:55:19.574Z,102250.00
2023-02-14T20:57:48.367Z,102247.41
2023-02-14T21:00:18.178Z,102246.56
2023-02-14T21:02:47.016Z,102250.03
2023-02-14T21:05:18.527Z,102250.00
2023-02-14T21:07:47.581Z,102254.38
2023-02-14T21:10:19.960Z,102248.25
2023-02-14T21:12:50.116Z,102242.16
2023-02-14T21:15:19.382Z,102246.53
2023-02-14T21:17:48.375Z,102247.41
2023-02-14T21:20:19.563Z,102250.88
2023-02-14T21:22:48.337Z,102246.53
2023-02-14T21:25:19.614Z,102250.88
2023-02-14T21:27:49.784Z,102243.06
2023-02-14T21:30:19.123Z,102255.31
2023-02-14T21:32:47.911Z,102250.00
2023-02-14T21:35:17.340Z,102241.31
2023-02-14T21:37:46.177Z,102254.28
2023-02-14T21:40:15.340Z,102248.22
2023-02-14T21:42:45.614Z,102256.00
2023-02-14T21:45:32.835Z,102245.56
2023-02-14T21:48:19.158Z,102256.81
2023-02-14T21:50:48.307Z,102251.56
2023-02-14T21:53:17.151Z,102249.91
2023-02-14T21:55:46.236Z,102248.16
2023-02-14T21:58:16.408Z,102245.53
2023-02-14T22:00:48.061Z,102244.56
2023-02-14T22:03:16.856Z,102245.56
2023-02-14T22:05:45.976Z,102253.34
2023-02-14T22:08:14.810Z,102248.94
2023-02-14T22:10:43.923Z,102248.16
2023-02-14T22:13:12.871Z,102248.94
2023-02-14T22:15:43.344Z,102238.53
2023-02-14T22:18:12.399Z,102242.03
2023-02-14T22:20:41.515Z,102247.09
2023-02-14T22:23:10.550Z,102240.97
2023-02-14T22:25:39.653Z,102243.53
2023-02-14T22:28:08.457Z,102240.00
2023-02-14T22:30:37.615Z,102242.63
2023-02-14T22:33:07.722Z,102243.47
2023-02-14T22:35:36.871Z,102236.50
2023-02-14T22:38:05.923Z,102245.25
2023-02-14T22:40:35.672Z,102239.09
2023-02-14T22:43:04.498Z,102241.75
2023-02-14T22:45:33.866Z,102238.25
2023-02-14T22:48:02.689Z,102240.81
2023-02-14T22:50:34.025Z,102237.28
2023-02-14T22:53:03.381Z,102239.03
2023-02-14T22:55:32.899Z,102247.00
2023-02-14T22:58:01.705Z,102240.97
2023-02-14T23:00:30.790Z,102234.03
2023-02-14T23:02:59.626Z,102231.34
2023-02-14T23:05:28.747Z,102232.25
2023-02-14T23:07:58.900Z,102235.66
2023-02-14T23:10:28.033Z,102227.03
2023-02-14T23:13:14.422Z,102243.50
2023-02-14T23:16:01.181Z,102235.75
2023-02-14T23:18:47.899Z,102240.00
2023-02-14T23:21:45.812Z,102240.91
2023-02-14T23:24:15.963Z,102238.22
2023-02-14T23:26:45.148Z,102238.25
2023-02-14T23:29:14.198Z,102237.34
2023-02-14T23:31:43.444Z,102240.88
2023-02-14T23:34:12.702Z,102237.44
2023-02-14T23:36:41.820Z,102236.66
2023-02-14T23:39:11.678Z,102228.84
2023-02-14T23:41:51.060Z,102234.06
2023-02-14T23:44:22.706Z,102232.28
2023-02-14T23:46:54.688Z,102237.44
2023-02-14T23:49:25.162Z,102236.53
2023-02-14T23:51:56.303Z,102233.09
2023-02-14T23:54:26.589Z,102236.56
2023-02-14T23:56:58.291Z,102234.81
2023-02-14T23:59:27.512Z,102233.88
